Mercer, WI

10:46 PM CDT on August 04, 2015 (GMT -0500)
North Turtle Lake | | Change Station
CLOSE
Current Station
Personal Weather Station
Location: Manitowish Waters, WI
Elevation: 1654 ft
Nearby Weather Stations

Elev 1654 ft 46.24 °N, 89.89 °W | Updated 18 seconds ago

Clear
Clear
51.8 °F
Feels Like 51.8 °F
N
0.9
Wind Variable Wind from NW
Gusts 2.5 mph

Today
High -- | Low -- °F
--% Chance of Precip.
Yesterday
High -- | Low -- °F
Precip. -- in
5:45 AM 8:26 PM
Waning Gibbous, 71% visible
Pressure 30.07 in
Visibility 10.0 miles
Clouds Clear
Dew Point 51 °F
Humidity 97%
Rainfall 0.00 in
Snow Depth Not available.
UV 0 out of 12
Pollen 5.50 out of 12
Air Quality Not available.
Flu Activity Not available.
METAR KD25 050335Z AUTO 00000KT 10SM CLR 12/11 A3007 RMK AO2 T01240109

More Conditions Fewer Conditions

Pressure 30.07 in
Visibility 10.0 miles
Clouds Clear
Dew Point 51 °F
Humidity 97%
Rainfall 0.00 in
Snow Depth Not available.
UV 0 out of 12
Pollen 5.50 out of 12
Air Quality Not available.
Flu Activity Not available.
METAR KD25 050335Z AUTO 00000KT 10SM CLR 12/11 A3007 RMK AO2 T01240109

More Conditions Fewer Conditions

10-Day Weather Forecast

×

Almanac

Astronomy

Aug. 04, 2015 Rise Set
Actual Time
Civil Twilight
Nautical Twilight
Astronomical Twilight
Moon
Length of Visible Light
Length of Day
Tomorrow will be .
, % of the Moon is Illuminated

Today's Extremes

State Highs State Lows

Community

WunderPhotos

Upload Photos

1,844,089 photos uploaded!

WunderBlogs® & News

Nearby

Air Quality

  Air Quality AQ Index Pollutant
Not available.

Snow Depth

Station Depth Elevation

Earthquake Activity

City Distance Mag. Time & Date
Minimum magnitude displayed is 2.5.

Coastal Water Temperatures

Place Temperature

Stations

Nearby Weather Stations

Station Location Temp. Windchill Dew Point Humidity Wind Precip. Elev Updated Type